Time;durP1;ratioP1;P1;durP2;ratioP2;P2;SDS_P1;SDS_P2;PMS_P1;PMS_P2;Temp;Humidity;BMP_temperature;BMP_pressure;BME280_temperature;BME280_humidity;BME280_pressure;Samples;Min_cycle;Max_cycle;Signal;HPM_P1;HPM_P2
2022/08/25 00:01:30;;;;;;;9.27;5.82;;;23.10;99.90;;;;;;4995962;28;20046;-71
2022/08/25 00:03:57;;;;;;;9.32;5.82;;;23.10;99.90;;;;;;4986894;28;20055;-71
2022/08/25 00:06:23;;;;;;;8.95;4.90;;;23.10;99.90;;;;;;4980587;28;20054;-71
2022/08/25 00:08:49;;;;;;;6.10;4.90;;;23.10;99.90;;;;;;4980987;28;20030;-71
2022/08/25 00:11:18;;;;;;;7.20;5.00;;;23.10;99.90;;;;;;4980598;28;20497;-72
2022/08/25 00:13:47;;;;;;;10.95;5.93;;;23.20;99.90;;;;;;4979854;28;20038;-72
2022/08/25 00:16:15;;;;;;;11.70;5.15;;;23.20;99.90;;;;;;4980762;28;20038;-72
2022/08/25 00:18:44;;;;;;;7.60;5.28;;;23.20;99.90;;;;;;4980578;28;20046;-73
2022/08/25 00:21:11;;;;;;;13.45;5.28;;;23.30;99.90;;;;;;4980765;28;20086;-71
2022/08/25 00:23:37;;;;;;;9.55;4.68;;;23.30;99.90;;;;;;4980460;28;20054;-71
2022/08/25 00:26:03;;;;;;;11.48;5.15;;;23.20;99.90;;;;;;4980336;28;20047;-71
2022/08/25 00:28:29;;;;;;;8.65;5.25;;;23.20;99.90;;;;;;4995693;28;20038;-71
2022/08/25 00:30:57;;;;;;;10.15;4.97;;;23.20;99.90;;;;;;4995226;28;20039;-71
2022/08/25 00:33:23;;;;;;;8.05;4.82;;;23.20;99.90;;;;;;4979723;28;20055;-71
2022/08/25 00:35:49;;;;;;;8.85;5.43;;;23.20;99.90;;;;;;4980198;28;20073;-71
2022/08/25 00:38:15;;;;;;;9.98;4.75;;;23.20;99.90;;;;;;4980196;28;20134;-71
2022/08/25 00:40:42;;;;;;;11.23;4.88;;;23.20;99.90;;;;;;4980357;28;20082;-71
2022/08/25 00:43:08;;;;;;;8.25;4.97;;;23.10;99.90;;;;;;4980021;28;20405;-71
2022/08/25 00:45:35;;;;;;;10.95;5.47;;;23.10;99.90;;;;;;4980027;28;20047;-72
2022/08/25 00:48:01;;;;;;;7.18;4.50;;;23.00;99.90;;;;;;4980350;28;20039;-71
2022/08/25 00:50:29;;;;;;;6.97;4.40;;;23.00;99.90;;;;;;4980154;28;20048;-71
2022/08/25 00:52:59;;;;;;;6.57;4.82;;;23.00;99.90;;;;;;4980165;28;20138;-71
2022/08/25 00:55:29;;;;;;;7.90;4.47;;;23.00;99.90;;;;;;4979760;28;20082;-72
2022/08/25 00:58:01;;;;;;;9.48;4.57;;;23.00;99.90;;;;;;4980070;28;20049;-71
2022/08/25 01:00:32;;;;;;;6.85;4.28;;;23.00;99.90;;;;;;4994941;28;20039;-71
2022/08/25 01:02:58;;;;;;;6.45;4.70;;;23.00;99.90;;;;;;4978429;28;20130;-72
2022/08/25 01:05:25;;;;;;;9.00;4.68;;;22.90;99.90;;;;;;4979617;28;20078;-71
2022/08/25 01:07:53;;;;;;;6.38;4.10;;;22.90;99.90;;;;;;4979703;28;20049;-71
2022/08/25 01:10:21;;;;;;;8.27;4.78;;;22.90;99.90;;;;;;4994825;28;20050;-71
2022/08/25 01:12:47;;;;;;;12.63;4.82;;;22.90;99.90;;;;;;4979540;28;20049;-71
2022/08/25 01:15:14;;;;;;;7.88;4.90;;;22.90;99.90;;;;;;4979681;28;20042;-71
2022/08/25 01:17:49;;;;;;;7.05;4.60;;;22.80;99.90;;;;;;4979482;28;20349;-71
2022/08/25 01:20:17;;;;;;;6.22;4.43;;;22.80;99.90;;;;;;4979404;28;20437;-71
2022/08/25 01:22:43;;;;;;;6.95;4.35;;;22.80;99.90;;;;;;4979574;28;20047;-71
2022/08/25 01:25:22;;;;;;;7.80;4.95;;;22.80;99.90;;;;;;4979586;28;20054;-72
2022/08/25 01:27:47;;;;;;;9.50;4.53;;;22.70;99.90;;;;;;4979313;28;20043;-71
2022/08/25 01:30:13;;;;;;;11.38;4.55;;;22.70;99.90;;;;;;4979262;28;20062;-71
2022/08/25 01:32:40;;;;;;;10.20;4.38;;;22.70;99.90;;;;;;4979070;28;20083;-71
2022/08/25 01:35:06;;;;;;;7.72;4.55;;;22.70;99.90;;;;;;4978526;28;20045;-72
2022/08/25 01:37:33;;;;;;;7.00;4.68;;;22.70;99.90;;;;;;4979291;28;20046;-72
2022/08/25 01:39:59;;;;;;;9.15;4.70;;;22.70;99.90;;;;;;4978052;28;20049;-71
2022/08/25 01:42:47;;;;;;;9.10;4.97;;;22.70;99.90;;;;;;4977846;28;20050;-71
2022/08/25 01:45:13;;;;;;;8.32;4.93;;;22.70;99.90;;;;;;4979073;28;20424;-71
2022/08/25 01:47:38;;;;;;;7.50;4.95;;;22.60;99.90;;;;;;4978849;28;20045;-71
2022/08/25 01:50:05;;;;;;;8.30;5.10;;;22.60;99.90;;;;;;4979157;28;20181;-71
2022/08/25 01:52:43;;;;;;;12.45;5.53;;;22.60;99.90;;;;;;4978928;28;20082;-71
2022/08/25 01:55:09;;;;;;;8.20;4.93;;;22.50;99.90;;;;;;4978792;28;20142;-71
2022/08/25 01:57:35;;;;;;;10.65;4.90;;;22.40;99.90;;;;;;4978774;28;20169;-71
2022/08/25 02:00:01;;;;;;;7.07;4.72;;;22.40;99.90;;;;;;4978712;28;20046;-72
2022/08/25 02:02:26;;;;;;;7.78;5.20;;;22.50;99.90;;;;;;4978882;28;20054;-71
2022/08/25 02:04:53;;;;;;;5.88;4.35;;;22.50;99.90;;;;;;4977985;28;20042;-71
2022/08/25 02:07:19;;;;;;;9.13;5.63;;;22.40;99.90;;;;;;4978612;28;20038;-71
2022/08/25 02:09:45;;;;;;;8.30;4.47;;;22.50;99.90;;;;;;4978590;28;20102;-71
2022/08/25 02:12:11;;;;;;;5.68;4.80;;;22.50;99.90;;;;;;4978596;28;20039;-71
2022/08/25 02:14:37;;;;;;;8.68;4.95;;;22.40;99.90;;;;;;4978309;28;20067;-72
2022/08/25 02:17:04;;;;;;;6.30;3.92;;;22.40;99.90;;;;;;4978616;28;20166;-71
2022/08/25 02:19:30;;;;;;;7.55;4.70;;;22.30;99.90;;;;;;4978365;28;20049;-71
2022/08/25 02:21:57;;;;;;;8.48;4.40;;;22.20;99.90;;;;;;4977252;28;20042;-71
2022/08/25 02:24:23;;;;;;;9.38;5.10;;;22.30;99.90;;;;;;4978545;28;20038;-71
2022/08/25 02:26:49;;;;;;;7.97;4.88;;;22.30;99.90;;;;;;4978208;28;20426;-71
2022/08/25 02:29:15;;;;;;;9.45;4.50;;;22.20;99.90;;;;;;4978113;28;20392;-72
2022/08/25 02:31:42;;;;;;;7.78;5.07;;;22.20;99.90;;;;;;4978278;28;20114;-72
2022/08/25 02:34:09;;;;;;;7.35;4.47;;;22.20;99.90;;;;;;4977984;28;20042;-71
2022/08/25 02:36:37;;;;;;;8.18;4.88;;;22.20;99.90;;;;;;4978124;28;20055;-71
2022/08/25 02:39:05;;;;;;;10.13;4.80;;;22.20;99.90;;;;;;4993099;28;20074;-71
2022/08/25 02:41:32;;;;;;;9.23;5.07;;;22.10;99.90;;;;;;4977872;28;20126;-71
2022/08/25 02:43:59;;;;;;;8.05;5.05;;;22.10;99.90;;;;;;4977921;28;20425;-71
2022/08/25 02:46:25;;;;;;;6.85;4.82;;;22.10;99.90;;;;;;4977699;28;20367;-71
2022/08/25 02:48:52;;;;;;;9.98;4.35;;;22.10;99.90;;;;;;4978026;28;20038;-71
2022/08/25 02:51:19;;;;;;;8.23;4.40;;;22.10;99.90;;;;;;4978045;28;20046;-71
2022/08/25 02:53:45;;;;;;;8.38;4.68;;;22.10;99.90;;;;;;4977455;28;20426;-71
2022/08/25 02:56:13;;;;;;;7.35;3.65;;;22.10;99.90;;;;;;4977768;28;20043;-71
2022/08/25 02:58:40;;;;;;;6.30;4.50;;;22.00;99.90;;;;;;4977469;28;20074;-71
2022/08/25 03:01:10;;;;;;;9.35;5.13;;;22.00;99.90;;;;;;4977915;28;20306;-71
2022/08/25 03:03:39;;;;;;;9.80;4.20;;;22.00;99.90;;;;;;4976521;28;20053;-71
2022/08/25 03:06:08;;;;;;;10.52;5.80;;;22.00;99.90;;;;;;4976539;28;20540;-71
2022/08/25 03:08:35;;;;;;;7.72;4.85;;;21.90;99.90;;;;;;4977587;28;20042;-71
2022/08/25 03:11:01;;;;;;;7.82;4.80;;;21.90;99.90;;;;;;4977565;28;20047;-72
2022/08/25 03:13:27;;;;;;;11.18;5.32;;;21.90;99.90;;;;;;4977819;28;20126;-71
2022/08/25 03:15:53;;;;;;;7.68;4.20;;;21.90;99.90;;;;;;4977693;28;20074;-71
2022/08/25 03:18:19;;;;;;;8.07;5.50;;;21.90;99.90;;;;;;4977766;28;20401;-71
2022/08/25 03:20:45;;;;;;;8.18;4.80;;;21.90;99.90;;;;;;4974922;28;20043;-73
2022/08/25 03:23:11;;;;;;;7.60;4.75;;;21.90;99.90;;;;;;4976241;28;20114;-71
2022/08/25 03:28:23;;;;;;;9.60;4.78;;;21.80;99.90;;;;;;4977654;28;20117;-71
2022/08/25 03:30:49;;;;;;;10.45;4.80;;;21.70;99.90;;;;;;4977477;28;20405;-71
2022/08/25 03:33:15;;;;;;;7.50;4.15;;;21.70;99.90;;;;;;4976879;28;20061;-71
2022/08/25 03:35:41;;;;;;;7.72;3.97;;;21.70;99.90;;;;;;4977297;28;20038;-71
2022/08/25 03:38:06;;;;;;;7.72;4.78;;;21.70;99.90;;;;;;4992320;28;20057;-71
2022/08/25 03:40:32;;;;;;;11.20;5.35;;;21.70;99.90;;;;;;4977386;28;20043;-71
2022/08/25 03:42:58;;;;;;;7.47;4.88;;;21.70;99.90;;;;;;4977453;28;20046;-71
2022/08/25 03:45:25;;;;;;;9.02;5.28;;;21.60;99.90;;;;;;4977269;28;20042;-72
2022/08/25 03:47:52;;;;;;;6.32;4.25;;;21.60;99.90;;;;;;4977285;28;20042;-71
2022/08/25 03:50:19;;;;;;;9.20;5.43;;;21.60;99.90;;;;;;4977294;28;20050;-71
2022/08/25 03:52:54;;;;;;;8.27;5.22;;;21.60;99.90;;;;;;4977116;28;20041;-71
2022/08/25 03:55:21;;;;;;;8.73;5.40;;;21.50;99.90;;;;;;4992578;28;20333;-71
2022/08/25 03:57:47;;;;;;;10.30;5.68;;;21.50;99.90;;;;;;4977098;28;20053;-71
2022/08/25 04:00:13;;;;;;;8.20;5.15;;;21.50;99.90;;;;;;4977090;28;20042;-71
2022/08/25 04:02:40;;;;;;;9.90;5.82;;;21.40;99.90;;;;;;4977395;28;20061;-71
2022/08/25 04:05:07;;;;;;;10.90;5.38;;;21.40;99.90;;;;;;4977898;28;20053;-72
2022/08/25 04:07:32;;;;;;;7.50;5.28;;;21.40;99.90;;;;;;4980907;28;20291;-71
2022/08/25 04:09:58;;;;;;;11.63;5.80;;;21.40;99.90;;;;;;4980917;28;20046;-71
2022/08/25 04:12:24;;;;;;;11.30;5.63;;;21.40;99.90;;;;;;4980596;28;20041;-72
2022/08/25 04:14:50;;;;;;;8.45;5.15;;;21.40;99.90;;;;;;4980887;28;20118;-71
2022/08/25 04:17:16;;;;;;;8.68;5.35;;;21.40;99.90;;;;;;4980570;28;20122;-71
2022/08/25 04:19:42;;;;;;;10.48;5.93;;;21.30;99.90;;;;;;4980552;28;20062;-71
2022/08/25 04:22:07;;;;;;;8.10;4.90;;;21.30;99.90;;;;;;4980397;28;20412;-71
2022/08/25 04:24:33;;;;;;;9.95;5.80;;;21.20;99.90;;;;;;4980359;28;20038;-71
2022/08/25 04:26:59;;;;;;;9.35;5.35;;;21.10;99.90;;;;;;4980410;28;20045;-71
2022/08/25 04:29:25;;;;;;;10.80;5.20;;;21.20;99.90;;;;;;4980289;28;20053;-71
2022/08/25 04:31:52;;;;;;;11.18;5.50;;;21.20;99.90;;;;;;4980117;28;20438;-71
2022/08/25 04:34:21;;;;;;;13.90;5.35;;;21.10;99.90;;;;;;4979844;28;20034;-72
2022/08/25 04:36:49;;;;;;;9.00;5.15;;;20.90;99.90;;;;;;4980469;28;20311;-71
2022/08/25 04:39:16;;;;;;;9.48;5.00;;;20.90;99.90;;;;;;4980175;28;20047;-71
2022/08/25 04:41:42;;;;;;;11.05;5.50;;;21.00;99.90;;;;;;4980139;28;20425;-71
2022/08/25 04:44:08;;;;;;;11.70;5.88;;;21.00;99.90;;;;;;4995419;28;20053;-71
2022/08/25 04:46:34;;;;;;;11.23;5.00;;;21.00;99.90;;;;;;4980050;28;20078;-71
2022/08/25 04:49:01;;;;;;;13.38;6.50;;;21.00;99.90;;;;;;4980199;28;20070;-71
2022/08/25 04:51:38;;;;;;;16.10;6.32;;;21.20;99.90;;;;;;4979896;28;20460;-71
2022/08/25 04:54:07;;;;;;;12.38;6.03;;;21.20;99.90;;;;;;4980303;28;20093;-71
2022/08/25 04:56:34;;;;;;;13.68;7.53;;;21.20;99.90;;;;;;4979921;28;20067;-71
2022/08/25 04:59:05;;;;;;;17.23;8.52;;;21.20;99.90;;;;;;4980085;28;20055;-71
2022/08/25 05:01:32;;;;;;;15.10;8.00;;;21.30;99.90;;;;;;4979595;28;20049;-71
2022/08/25 05:04:01;;;;;;;12.57;7.72;;;21.20;99.90;;;;;;4979416;28;20042;-71
2022/08/25 05:06:27;;;;;;;11.88;7.88;;;21.20;99.90;;;;;;4979909;28;20053;-71
2022/08/25 05:08:54;;;;;;;11.63;7.47;;;21.20;99.90;;;;;;4979697;28;20043;-71
2022/08/25 05:11:21;;;;;;;18.10;8.95;;;21.20;99.90;;;;;;4979831;28;20062;-71
2022/08/25 05:13:49;;;;;;;13.85;7.63;;;21.20;99.90;;;;;;4979561;28;20062;-71
2022/08/25 05:16:16;;;;;;;14.95;8.93;;;21.20;99.90;;;;;;4979375;28;20121;-71
2022/08/25 05:18:43;;;;;;;13.63;7.43;;;21.20;99.90;;;;;;4978568;28;20038;-71
2022/08/25 05:21:16;;;;;;;18.15;9.30;;;21.30;99.90;;;;;;4979540;28;20046;-71
2022/08/25 05:23:42;;;;;;;14.05;8.07;;;21.30;99.90;;;;;;4979587;28;20173;-71
2022/08/25 05:26:13;;;;;;;13.75;7.72;;;21.40;99.90;;;;;;4979315;28;20078;-71
2022/08/25 05:28:40;;;;;;;11.68;7.60;;;21.40;99.90;;;;;;4979507;28;20039;-71
2022/08/25 05:31:08;;;;;;;11.90;7.20;;;21.40;99.90;;;;;;4979393;28;20042;-71
2022/08/25 05:33:35;;;;;;;13.23;8.00;;;21.50;99.90;;;;;;4978732;28;20189;-71
2022/08/25 05:36:01;;;;;;;11.25;6.47;;;21.50;99.90;;;;;;4979054;28;20050;-71
2022/08/25 05:38:27;;;;;;;14.75;6.97;;;21.50;99.90;;;;;;4994358;28;20045;-71
2022/08/25 05:41:05;;;;;;;11.80;7.00;;;21.70;99.90;;;;;;4979338;28;20045;-71
2022/08/25 05:43:31;;;;;;;11.95;6.60;;;21.70;99.90;;;;;;4979195;28;20035;-71
2022/08/25 05:45:58;;;;;;;11.88;6.20;;;21.80;99.90;;;;;;4978968;28;20053;-71
2022/08/25 05:48:25;;;;;;;10.48;6.05;;;21.90;99.90;;;;;;4978965;28;20074;-71
2022/08/25 05:50:56;;;;;;;13.00;6.43;;;21.90;99.90;;;;;;4979032;28;20441;-71
2022/08/25 05:53:22;;;;;;;9.35;6.60;;;21.80;99.90;;;;;;4978814;28;20046;-71
2022/08/25 05:55:50;;;;;;;11.23;6.80;;;21.80;99.90;;;;;;4978759;28;20046;-71
2022/08/25 05:58:16;;;;;;;11.80;6.38;;;21.80;99.90;;;;;;4978854;28;20050;-71
2022/08/25 06:00:42;;;;;;;10.50;6.40;;;21.80;99.90;;;;;;4978570;28;20038;-71
2022/08/25 06:03:07;;;;;;;11.50;6.47;;;22.00;99.90;;;;;;4978791;28;20089;-71
2022/08/25 06:05:33;;;;;;;13.18;6.82;;;22.00;99.90;;;;;;4978015;28;20051;-71
2022/08/25 06:07:59;;;;;;;11.45;6.80;;;22.10;99.90;;;;;;4978787;28;20035;-71
2022/08/25 06:10:25;;;;;;;10.85;6.70;;;22.20;99.90;;;;;;4978339;28;20421;-71
2022/08/25 06:12:51;;;;;;;11.30;6.72;;;22.20;99.90;;;;;;4978453;28;20074;-71
2022/08/25 06:15:19;;;;;;;12.50;6.53;;;22.20;99.90;;;;;;4977491;28;20141;-71
2022/08/25 06:17:46;;;;;;;9.35;6.28;;;22.20;99.90;;;;;;4978385;28;20076;-71
2022/08/25 06:20:19;;;;;;;11.85;6.47;;;22.40;99.90;;;;;;4978428;28;20173;-71
2022/08/25 06:22:45;;;;;;;10.82;5.70;;;22.50;99.90;;;;;;4978159;28;20057;-72
2022/08/25 06:25:13;;;;;;;16.23;7.30;;;22.60;99.90;;;;;;4978386;28;20341;-71
2022/08/25 06:27:39;;;;;;;13.07;6.13;;;22.70;99.90;;;;;;4977640;28;20043;-71
2022/08/25 06:30:07;;;;;;;12.77;6.82;;;22.80;99.90;;;;;;4978340;28;20050;-71
2022/08/25 06:32:38;;;;;;;13.35;6.80;;;22.90;99.90;;;;;;4977906;28;20134;-71
2022/08/25 06:35:05;;;;;;;11.38;7.03;;;22.70;99.90;;;;;;4977713;28;20373;-71
2022/08/25 06:37:31;;;;;;;15.43;7.15;;;22.90;99.90;;;;;;4978215;28;20065;-71
2022/08/25 06:39:57;;;;;;;12.23;7.05;;;22.80;99.90;;;;;;4977864;28;20039;-71
2022/08/25 06:42:23;;;;;;;8.98;6.50;;;22.90;99.90;;;;;;4978256;28;20039;-71
2022/08/25 06:44:48;;;;;;;9.07;5.95;;;22.90;99.90;;;;;;4977990;28;20034;-71
2022/08/25 06:47:15;;;;;;;12.88;6.25;;;23.00;99.90;;;;;;4977966;28;20054;-71
2022/08/25 06:49:42;;;;;;;10.50;6.50;;;23.10;99.90;;;;;;4976793;28;20063;-71
2022/08/25 06:52:08;;;;;;;14.10;6.47;;;23.10;99.90;;;;;;4977589;28;20070;-71
2022/08/25 06:54:34;;;;;;;18.40;6.45;;;23.10;99.90;;;;;;4978003;28;20043;-71
2022/08/25 06:57:00;;;;;;;10.32;6.13;;;23.20;99.90;;;;;;4977918;28;20353;-71
2022/08/25 06:59:27;;;;;;;12.68;6.50;;;23.20;99.90;;;;;;4977996;28;20121;-71
2022/08/25 07:01:52;;;;;;;13.98;6.20;;;23.40;99.90;;;;;;4977686;28;20114;-71
2022/08/25 07:04:19;;;;;;;11.30;6.45;;;23.40;99.90;;;;;;4977272;28;20121;-71
2022/08/25 07:06:45;;;;;;;12.75;6.32;;;23.40;99.90;;;;;;4977473;28;20055;-71
2022/08/25 07:09:12;;;;;;;11.93;6.47;;;23.50;99.90;;;;;;4977880;28;20063;-71
2022/08/25 07:11:42;;;;;;;12.32;6.57;;;23.70;99.90;;;;;;4977562;28;20062;-71
2022/08/25 07:14:10;;;;;;;14.15;6.15;;;23.80;99.90;;;;;;4977596;28;20039;-71
2022/08/25 07:16:37;;;;;;;9.07;5.78;;;23.90;99.90;;;;;;4977744;28;20174;-72
2022/08/25 07:19:04;;;;;;;14.00;5.95;;;24.00;99.90;;;;;;4977604;28;20042;-71
2022/08/25 07:21:32;;;;;;;12.13;6.00;;;24.10;99.90;;;;;;4977756;28;20049;-71
2022/08/25 07:23:59;;;;;;;9.40;6.28;;;24.20;99.90;;;;;;4977863;28;20039;-71
2022/08/25 07:26:29;;;;;;;11.23;6.60;;;24.10;99.90;;;;;;4977540;28;20051;-71
2022/08/25 07:28:55;;;;;;;9.93;6.10;;;24.20;99.90;;;;;;4977357;28;20121;-71
2022/08/25 07:31:21;;;;;;;11.60;6.05;;;24.20;99.90;;;;;;4977531;28;20043;-71
2022/08/25 07:36:31;;;;;;;10.15;6.40;;;24.40;99.90;;;;;;4977512;28;20094;-71
2022/08/25 07:39:04;;;;;;;13.05;6.30;;;24.30;99.70;;;;;;4977628;28;20051;-71
2022/08/25 07:41:32;;;;;;;12.35;6.07;;;24.30;99.80;;;;;;4981240;28;20045;-71
2022/08/25 07:43:58;;;;;;;15.18;6.50;;;24.40;99.90;;;;;;4981328;28;20049;-71
2022/08/25 07:46:24;;;;;;;11.32;6.68;;;24.40;99.80;;;;;;4996077;28;20043;-71
2022/08/25 07:48:50;;;;;;;10.13;6.07;;;24.70;99.80;;;;;;4980994;28;20070;-71
2022/08/25 07:51:16;;;;;;;10.65;5.97;;;24.90;99.80;;;;;;4981201;28;20045;-70
2022/08/25 07:53:42;;;;;;;13.18;5.20;;;25.00;99.70;;;;;;4980867;28;20047;-70
2022/08/25 07:56:16;;;;;;;12.73;5.78;;;25.20;99.80;;;;;;4981119;28;20042;-69
2022/08/25 07:58:42;;;;;;;10.15;5.18;;;25.30;99.70;;;;;;4980937;28;20046;-69
2022/08/25 08:01:20;;;;;;;9.95;5.75;;;25.40;99.80;;;;;;4981189;28;20054;-70
2022/08/25 08:03:46;;;;;;;9.85;5.80;;;25.30;99.50;;;;;;4980407;28;20035;-70
2022/08/25 08:06:15;;;;;;;9.00;5.20;;;25.40;99.90;;;;;;4981115;28;20035;-72
2022/08/25 08:08:44;;;;;;;12.85;5.75;;;25.50;99.70;;;;;;4981821;28;20091;-70
2022/08/25 08:11:21;;;;;;;10.57;5.05;;;25.50;99.70;;;;;;4980688;28;20039;-72
2022/08/25 08:13:48;;;;;;;9.70;5.35;;;25.70;99.60;;;;;;4980911;28;20034;-70
2022/08/25 08:16:15;;;;;;;10.23;5.00;;;25.80;99.70;;;;;;4980782;28;20306;-70
2022/08/25 08:18:42;;;;;;;9.38;5.00;;;25.90;99.40;;;;;;4980693;28;20319;-70
2022/08/25 08:21:27;;;;;;;11.02;5.03;;;26.00;99.40;;;;;;4980507;28;20133;-70
2022/08/25 08:23:55;;;;;;;11.15;5.10;;;26.00;99.70;;;;;;4980420;28;20377;-71
2022/08/25 08:26:22;;;;;;;10.50;5.05;;;26.10;99.50;;;;;;4980556;28;20045;-70
2022/08/25 08:28:49;;;;;;;11.00;5.13;;;26.30;99.50;;;;;;4980584;28;20039;-70
2022/08/25 08:31:18;;;;;;;9.55;5.07;;;26.40;99.00;;;;;;4980444;28;20051;-70
2022/08/25 08:33:45;;;;;;;7.95;4.60;;;26.40;99.20;;;;;;4979651;28;20361;-70
2022/08/25 08:36:12;;;;;;;10.50;4.85;;;26.50;99.30;;;;;;4980495;28;20048;-70
2022/08/25 08:38:40;;;;;;;9.85;4.57;;;26.70;99.30;;;;;;4995318;28;20098;-70
2022/08/25 08:44:23;;;;;;;8.07;4.47;;;26.90;99.30;;;;;;4980522;28;20105;-85
2022/08/25 08:46:58;;;;;;;7.65;4.20;;;27.10;99.40;;;;;;4979849;28;20043;-83
2022/08/25 08:49:55;;;;;;;6.43;4.70;;;26.90;99.50;;;;;;4979371;28;20136;-70
2022/08/25 08:52:32;;;;;;;11.75;4.85;;;27.00;99.30;;;;;;4977627;28;20047;-70
2022/08/25 08:55:03;;;;;;;11.27;4.65;;;27.10;99.10;;;;;;4978149;28;20097;-71
2022/08/25 08:57:34;;;;;;;11.63;5.07;;;27.30;99.20;;;;;;4979157;28;20051;-71
2022/08/25 09:00:01;;;;;;;8.23;4.85;;;27.40;98.90;;;;;;4971508;28;20042;-74
2022/08/25 09:02:34;;;;;;;10.10;4.32;;;27.40;98.70;;;;;;4978993;28;20061;-73
2022/08/25 09:05:21;;;;;;;13.27;4.50;;;27.50;98.90;;;;;;4978400;28;20065;-69
2022/08/25 09:07:55;;;;;;;6.85;4.72;;;27.60;99.00;;;;;;4977592;28;20043;-71
2022/08/25 09:10:24;;;;;;;11.27;4.28;;;27.60;98.70;;;;;;4977482;28;20054;-70
2022/08/25 09:13:05;;;;;;;9.68;4.40;;;27.70;98.90;;;;;;4970078;28;20046;-71
2022/08/25 09:19:19;;;;;;;10.97;4.57;;;28.10;98.50;;;;;;4976126;28;20162;-70
2022/08/25 09:22:11;;;;;;;7.43;4.47;;;28.20;98.50;;;;;;4959588;28;20043;-69
2022/08/25 09:24:52;;;;;;;9.75;4.00;;;28.40;98.80;;;;;;4960249;28;20109;-70
2022/08/25 09:27:38;;;;;;;6.88;3.53;;;28.60;98.40;;;;;;4960114;29;20047;-70
2022/08/25 09:30:10;;;;;;;9.93;3.90;;;28.70;98.00;;;;;;4960017;28;20044;-70
2022/08/25 09:32:42;;;;;;;8.00;3.67;;;28.90;98.50;;;;;;4961499;28;20417;-71
2022/08/25 09:35:20;;;;;;;6.47;3.70;;;29.00;98.70;;;;;;4978801;28;20050;-71
2022/08/25 09:37:55;;;;;;;8.18;3.67;;;29.30;98.70;;;;;;4979262;28;20041;-71
2022/08/25 09:40:23;;;;;;;5.95;3.80;;;29.50;98.00;;;;;;4994503;28;20042;-70
2022/08/25 09:42:52;;;;;;;5.93;3.45;;;29.50;98.20;;;;;;4979006;28;20426;-71
2022/08/25 09:45:36;;;;;;;8.80;4.20;;;29.70;98.30;;;;;;4978562;28;20438;-72
2022/08/25 09:48:38;;;;;;;5.60;3.40;;;29.90;98.10;;;;;;4979038;28;20121;-71
2022/08/25 09:51:35;;;;;;;7.60;3.97;;;30.00;97.90;;;;;;4965461;28;20079;-71
2022/08/25 09:54:12;;;;;;;10.05;3.35;;;29.80;97.40;;;;;;4959645;28;20371;-71
2022/08/25 09:57:00;;;;;;;5.95;2.95;;;29.80;97.50;;;;;;4959458;28;20550;-73
2022/08/25 09:59:34;;;;;;;5.55;2.97;;;29.80;97.60;;;;;;4958665;29;20360;-71
2022/08/25 10:02:24;;;;;;;6.15;2.70;;;29.80;97.20;;;;;;4959020;28;20109;-75
2022/08/25 10:04:51;;;;;;;6.57;2.58;;;29.90;97.20;;;;;;4963491;28;20066;-71
2022/08/25 10:07:24;;;;;;;6.07;2.90;;;30.00;97.70;;;;;;4958204;29;20051;-83
2022/08/25 10:09:58;;;;;;;9.15;2.83;;;30.20;97.20;;;;;;4959256;28;20039;-70
2022/08/25 10:12:36;;;;;;;9.95;2.90;;;30.40;97.00;;;;;;4958990;28;20054;-70
2022/08/25 10:15:26;;;;;;;6.32;2.33;;;30.40;96.70;;;;;;4959342;28;20039;-72
2022/08/25 10:17:51;;;;;;;10.20;3.03;;;30.60;97.00;;;;;;4958223;29;20109;-72
2022/08/25 10:20:24;;;;;;;6.78;2.53;;;30.80;97.10;;;;;;4960520;28;20134;-72
2022/08/25 10:22:52;;;;;;;5.40;2.60;;;31.00;96.90;;;;;;4958883;28;20043;-73
2022/08/25 10:25:28;;;;;;;12.07;2.90;;;31.10;96.80;;;;;;4966311;28;20035;-71
2022/08/25 10:28:31;;;;;;;5.57;2.70;;;31.20;96.60;;;;;;4978550;28;20089;-72
2022/08/25 10:31:13;;;;;;;5.13;2.70;;;30.90;96.60;;;;;;4981007;28;20051;-72
2022/08/25 10:34:03;;;;;;;6.53;2.65;;;30.90;96.70;;;;;;4976430;28;20116;-71
2022/08/25 10:36:51;;;;;;;9.23;2.97;;;31.20;96.10;;;;;;4977830;28;20108;-70
2022/08/25 10:39:42;;;;;;;5.05;2.40;;;31.40;96.30;;;;;;4970605;28;20079;-70
2022/08/25 10:42:22;;;;;;;5.32;2.85;;;31.40;96.30;;;;;;4975750;28;20095;-69
2022/08/25 10:48:16;;;;;;;4.60;2.60;;;31.90;96.50;;;;;;4969139;28;20109;-70
2022/08/25 10:50:50;;;;;;;5.50;2.58;;;32.30;96.30;;;;;;4967624;28;20319;-70
2022/08/25 10:53:28;;;;;;;5.72;2.72;;;32.70;96.00;;;;;;4977811;28;20349;-70
2022/08/25 10:56:15;;;;;;;3.67;2.58;;;32.50;96.60;;;;;;4977491;28;21546;-71
2022/08/25 10:59:11;;;;;;;6.45;2.40;;;32.40;95.60;;;;;;4977525;28;20430;-71
2022/08/25 11:02:19;;;;;;;6.03;3.08;;;32.70;95.80;;;;;;4976590;28;20039;-70
2022/08/25 11:05:08;;;;;;;4.47;2.90;;;32.70;96.00;;;;;;4977193;28;20070;-71
2022/08/25 11:07:48;;;;;;;4.82;2.70;;;32.90;96.00;;;;;;4976825;28;20053;-69
2022/08/25 11:10:18;;;;;;;8.82;3.13;;;32.90;96.10;;;;;;4977836;28;20039;-70
2022/08/25 11:12:58;;;;;;;6.50;3.38;;;33.20;96.20;;;;;;4977702;28;20073;-72
2022/08/25 11:15:29;;;;;;;7.78;3.08;;;33.00;95.90;;;;;;4977428;28;20299;-71
2022/08/25 11:18:14;;;;;;;7.93;2.95;;;33.00;95.90;;;;;;4977487;28;20311;-70
2022/08/25 11:20:49;;;;;;;4.63;2.40;;;32.90;95.50;;;;;;4972446;28;20492;-70
2022/08/25 11:23:24;;;;;;;5.78;2.50;;;32.80;95.70;;;;;;4976944;28;20046;-70
2022/08/25 11:25:53;;;;;;;6.20;2.30;;;32.60;95.30;;;;;;4977066;28;20047;-71
2022/08/25 11:28:46;;;;;;;6.35;2.50;;;33.00;95.10;;;;;;4976791;28;20386;-73
2022/08/25 11:31:14;;;;;;;6.65;2.50;;;32.70;95.00;;;;;;4976616;28;20441;-72
2022/08/25 11:33:39;;;;;;;11.15;2.55;;;32.70;95.50;;;;;;4985339;28;20059;-71
2022/08/25 11:36:23;;;;;;;6.00;2.75;;;32.80;95.00;;;;;;4979922;28;20113;-72
2022/08/25 11:39:11;;;;;;;7.90;2.83;;;33.20;95.20;;;;;;4976752;28;20046;-75
2022/08/25 11:42:03;;;;;;;6.82;3.13;;;33.50;94.90;;;;;;4973553;28;20069;-71
2022/08/25 11:44:47;;;;;;;9.02;3.33;;;33.30;94.90;;;;;;4972967;28;20345;-71
2022/08/25 11:47:54;;;;;;;10.35;2.92;;;33.40;94.90;;;;;;4977178;28;20478;-71
2022/08/25 11:50:35;;;;;;;4.13;2.47;;;33.40;94.80;;;;;;4975788;28;20050;-71
2022/08/25 11:53:10;;;;;;;5.78;2.47;;;33.70;95.40;;;;;;4977185;28;20516;-71
2022/08/25 11:55:35;;;;;;;5.40;2.47;;;34.30;95.30;;;;;;4977061;28;20054;-71
2022/08/25 11:58:29;;;;;;;5.30;2.60;;;34.70;95.10;;;;;;4977166;28;20050;-71
2022/08/25 12:00:57;;;;;;;6.40;2.58;;;35.00;94.80;;;;;;4984511;28;20050;-72
2022/08/25 12:03:35;;;;;;;4.35;2.30;;;35.10;94.90;;;;;;4977098;28;20521;-71
2022/08/25 12:06:15;;;;;;;8.13;2.58;;;35.10;94.80;;;;;;4977118;28;20043;-71
2022/08/25 12:08:59;;;;;;;7.22;2.65;;;35.00;94.40;;;;;;4977373;28;20089;-71
2022/08/25 12:11:55;;;;;;;4.72;2.28;;;34.90;94.20;;;;;;4976262;28;20097;-72
2022/08/25 12:14:20;;;;;;;6.07;2.67;;;34.90;94.40;;;;;;4977689;28;20051;-71
2022/08/25 12:16:55;;;;;;;3.53;2.22;;;35.30;94.20;;;;;;4977048;28;20042;-71
2022/08/25 12:19:47;;;;;;;5.67;2.30;;;35.30;94.00;;;;;;4976943;28;20333;-72
2022/08/25 12:22:13;;;;;;;3.83;2.85;;;35.30;94.20;;;;;;4976393;28;20126;-71
2022/08/25 12:24:41;;;;;;;5.18;2.30;;;35.40;93.90;;;;;;4976947;28;20146;-71
2022/08/25 12:27:30;;;;;;;3.72;2.58;;;35.30;93.90;;;;;;4979953;28;20046;-71
2022/08/25 12:30:04;;;;;;;4.55;2.63;;;35.50;93.90;;;;;;4979830;28;20047;-71
2022/08/25 12:33:00;;;;;;;4.63;2.28;;;35.50;93.80;;;;;;4980084;28;20058;-72
2022/08/25 12:35:54;;;;;;;3.22;2.55;;;35.90;94.00;;;;;;4979556;28;20405;-72
2022/08/25 12:38:29;;;;;;;3.75;2.50;;;35.70;93.60;;;;;;4962092;28;20047;-76
2022/08/25 12:41:07;;;;;;;8.97;2.60;;;35.50;94.20;;;;;;4960996;29;20374;-72
2022/08/25 12:43:39;;;;;;;6.68;2.63;;;35.90;93.40;;;;;;4961065;29;20050;-72
2022/08/25 12:46:20;;;;;;;6.68;2.47;;;35.80;93.50;;;;;;4982156;28;20207;-72
2022/08/25 12:48:57;;;;;;;4.60;2.38;;;35.80;93.20;;;;;;4994258;28;20082;-71
2022/08/25 12:51:25;;;;;;;4.47;2.47;;;35.70;93.20;;;;;;4980091;28;20039;-72
2022/08/25 12:54:11;;;;;;;3.90;2.47;;;35.70;93.40;;;;;;4979602;28;20134;-72
2022/08/25 12:56:44;;;;;;;4.20;2.17;;;36.10;93.10;;;;;;4980054;28;20380;-72
2022/08/25 12:59:18;;;;;;;8.65;2.55;;;36.40;93.20;;;;;;4978796;28;20042;-73
2022/08/25 13:02:03;;;;;;;2.30;2.10;;;36.70;93.30;;;;;;4979617;28;20051;-72
2022/08/25 13:04:47;;;;;;;4.78;2.53;;;36.50;93.20;;;;;;4979644;28;20046;-72
2022/08/25 13:07:24;;;;;;;5.00;2.28;;;36.60;92.90;;;;;;4979662;28;20043;-73
2022/08/25 13:10:18;;;;;;;4.38;2.33;;;36.20;92.60;;;;;;4979648;28;20504;-72
2022/08/25 13:13:02;;;;;;;5.57;2.65;;;36.10;92.80;;;;;;4979692;28;20046;-72
2022/08/25 13:15:41;;;;;;;6.10;2.45;;;36.10;92.70;;;;;;4979738;28;20035;-73
2022/08/25 13:18:15;;;;;;;3.63;2.28;;;36.30;92.80;;;;;;4979833;28;20101;-73
2022/08/25 13:20:42;;;;;;;7.40;2.53;;;36.70;92.70;;;;;;4994643;28;20449;-72